Poker QiuQiu Online Indonesia | Situs Judi Domino Ceme Uang Asli Terpercaya

1 User ID Untuk Semua Game: Live Casino, Bola, Poker & Slots
Agen Judi Bola Online Bonus Deposit
Google+

Jackpot

Texas Poker Multi Jackpot System

Kini Telah hadir Jackpot SUPER ROYAL FLUSH

Kini Telah hadir Jackpot 2000 (khusus table VIP keatas).

Ikutilah global jackpot yang tersedia di system kami, dengan system jackpot terbaru dan pertama di indonesia, anda dapat membeli jackpot dengan harga 100 rupiah saja dan menangkan hadiahnya hingga puluhan juta rupiah.

Jackpot bukanlah suatu keharusan untuk dibeli, namun kami memberikan suatu fitur tambahan untuk member tercinta dari www.s78poker.co.

Terdapat tiga pilihan harga jackpot yang bisa anda beli yaitu :100,500,1000 dan 2000(khusus table VIP Keatas) rupiah.

Hadiah dari Multi jackpot system www.s78poker.co

  1. full house x 10 harga jackpot yang anda beli.
      (contoh:anda membeli 1000 maka:1000 X10 = 10.000)
  2. four of kind x 250 harga jackpot yang anda beli
      (contoh:anda membeli 1000 maka:1000 X250 = 250.000)
  3. Straight flush x 1200
      (contoh:anda membeli 1000 maka:1000 X1200 = 1.200.000)
  4. Royal flush x 10000 harga jackpot yang anda beli
      (contoh:anda membeli 1000 maka:1000 X10000 = 10.000.000)
  5. SUPER ROYAL FLUSH x 30000 harga jackpot yang anda beli
      (contoh:anda membeli 1000 maka:1000 X30000 = 30.000.000)

Kondisi kartu

  1. full house adalah kondisi kartu dimana kartu anda dan kartu tengah dengan total 7 kartu bisa mendapatkan nilai 5 kartu dengan kombinasi 1 tris(three of kind) dan 1 pair, contoh 3 kartu 10 dan 2 kartu 5
  2. Four of kind adalah kondisi kartu dimana kartu anda dan kartu tengah dengan total 7 kartu bisa mendapatkan nilai 5 kartu dengan kombinasi 4 kartu yang sama jumlah dan 1 kartu apapun juga contoh anda mendapatkan 4 buah kartu angka 3 dan 1 kartu apapun.
  3. Staright flush adalah kondisi kartu dimana kartu anda dan kartu tengah dengan total 7 kartu bisa mendapatkan nilai 5 kartu dengan kombinasi seri / staright dengan kembang yang sama contoh : urutan kartu dari angka 5, 6, 7, 8 , 9 10 dengan kembang yg sama misalnya as hati
  4. Royal flush adalah kondisi kartu dimana kartu anda dan kartu tengah dengan total 7 kartu bisa mendapatkan nilai 5 kartu dengan kombinasi seri / staright dengan kembang yang sama tetapi kartu tersebut haruslah dimulai dari 10. contoh 10, Queen, Jack, King dan aces dengan kembang yang sama
  5. Super Royal flush adalah kondisi kartu dimana Kedua kartu anda digabung dengan 3 kartu pertama meja haruslah royal flush. contoh kartu anda 10,Queen kembang sama dan 3 kartu pertama meja adalah Jack, King dan aces dengan kembang yang sama

Demikian adalah penjelasan dari Multi Jackpot www.s78poker.co terima kasih dan selamat bermain salam hoki dari kami

Texas Poker Jackpot Winner

TOP SUPER ROYAL FLUSH
No.TanggalNamaPriceWin
128/05 13:28ERIKSON08Super Royal flush6,000,000
228/05 12:18P11LUSuper Royal flush15,000,000
328/05 11:36SAKITGIGI7Super Royal flush1,500,000
428/05 10:55ADNANN88Super Royal flush3,000,000
528/05 07:52SUGAR04Super Royal flush6,000,000
TOP ROYAL FLUSH
No.TanggalNamaPriceWin
128/05 14:44POKERBOH89Royal flush2,000,000
228/05 14:33SURGA06Royal flush1,000,000
328/05 13:52ALIUNK82Royal flush1,000,000
428/05 13:44LOSESERoyal flush1,000,000
528/05 13:13EZRAHARARoyal flush10,000,000
TOP STRAIGHT FLUSH
No.TanggalNamaPriceWin
128/05 14:55NGOLAHStraight Flush1,200,000
228/05 14:53YD34AXE1OOStraight Flush120,000
328/05 14:53FANDERS09Straight Flush240,000
428/05 14:53AYEN9888Straight Flush240,000
528/05 14:53UUNO35Straight Flush600,000
LATEST JACKPOT
No.TanggalNamaPriceWin
128/05 14:56HOKI8853Full House1,000
228/05 14:56ETET78Full House1,000
328/05 14:56H3RPFull House1,000
428/05 14:56JUR4G4NAFull House20,000
528/05 14:56ARSY_ALTFull House5,000
628/05 14:56VITA7878Full House5,000
728/05 14:56KIZUTT10Full House5,000
828/05 14:56C3C2434FFull House5,000
928/05 14:56M57RI0OMDVFull House5,000
1028/05 14:56DEDIT333Full House5,000
1128/05 14:56DJ506Full House5,000
1228/05 14:56F94594MVRVFull House2,000
1328/05 14:56DEWA_MUJURFull House5,000
1428/05 14:56WYNWYN99Full House1,000
1528/05 14:56MR_KARTUFull House10,000
1628/05 14:56NURAINI888Full House2,000
1728/05 14:56BM12BWFull House2,000
1828/05 14:56SURGA06Full House500
1928/05 14:56VARGAS19Full House10,000
2028/05 14:56KEMLAGIFull House5,000
2128/05 14:56IWENK813Full House5,000
2228/05 14:56MUISTXFull House2,000
2328/05 14:56SABARA008Full House5,000
2428/05 14:56CC9E5F45Full House2,000
2528/05 14:56THOMASBOYFull House1,000
2628/05 14:56RUSTAM1234Full House10,000
2728/05 14:56MANCIS888Full House20,000
2828/05 14:56A59A5E90Full House2,000
2928/05 14:56BOKERARTISFull House2,000
3028/05 14:56MAKAYU2Full House5,000
3128/05 14:56KINK18Full House5,000
3228/05 14:56M0SK0W1234Full House2,000
3328/05 14:56ROCOK14Full House20,000
3428/05 14:56MANGSUGESTFull House5,000
3528/05 14:55TOSAWFour Of A Kind250,000
3628/05 14:55T4DSANTET7Full House5,000
3728/05 14:55JATTANSPKFull House1,000
3828/05 14:55JUFRI212Full House5,000
3928/05 14:55DA5C3C0DFull House2,000
4028/05 14:55MP4DKARDI84Full House1,000
4128/05 14:55STEMPLET41Full House2,000
4228/05 14:55BASOSAPI28Four Of A Kind12,500
4328/05 14:55NBG6KA4XHFFull House5,000
4428/05 14:55BUATHAPEFour Of A Kind50,000
4528/05 14:55BAYU1985Full House5,000
4628/05 14:55DERY022Full House5,000
4728/05 14:55P4S1000Full House2,000
4828/05 14:55U2JEQVA9IPFull House5,000
4928/05 14:55OSHELAFull House10,000
5028/05 14:55GOGON3562Full House10,000

Domino Multi Jackpot System

Ikutilah global jackpot yang tersedia di system kami, dengan system jackpot terbaru dan pertama di indonesia, anda dapat membeli jackpot dengan harga 100 rupiah saja dan menangkan hadiahnya hingga puluhan juta rupiah.

Jackpot bukanlah suatu keharusan untuk dibeli, namun kami memberikan suatu fitur tambahan untuk member tercinta dari www.s78poker.co.

Terdapat tiga pilihan harga jackpot yang bisa anda beli yaitu :100,500 dan 1000 rupiah.

Hadiah dari Multi jackpot system www.s78poker.co

  1. Murni Kecil x 50 harga jackpot yang anda beli.
      (contoh:anda membeli 1000 maka:1000 X 50 = 50.000)
  2. Murni Besar x 50 harga jackpot yang anda beli
      (contoh:anda membeli 1000 maka:1000 X 50 = 50.000)
  3. BALAK x 100 harga jackpot yang anda beli
      (contoh:anda membeli 1000 maka:1000 X 100 = 100.000)
  4. ENAM DEWA x 6666 harga jackpot yang anda beli
      (contoh:anda membeli 1000 maka:1000 X 6666 = 6.666.000)

Demikian adalah penjelasan dari Multi Jackpot www.s78poker.co terima kasih dan selamat bermain salam hoki dari kami

Domino Jackpot Winner

TOP ENAM DEWA
No.TanggalNamaPriceWin
128/05 14:49KASELLAmurni enam6,666,000
228/05 13:42SAKOY82murni enam6,666,000
328/05 13:21UDIN259murni enam666,600
428/05 09:33OAACTG9VQ3murni enam6,666,000
528/05 06:37SILENCE90murni enam6,666,000
TOP BALAK
No.TanggalNamaPriceWin
128/05 14:46POERBAbalak100,000
228/05 14:41OMBAK099balak10,000
328/05 14:38DOBBLE37balak100,000
428/05 14:37UJC0017balak100,000
528/05 14:36DWBTLINA69balak100,000
LATEST JACKPOT
No.TanggalNamaPriceWin
128/05 14:56KIKOKEKImurni kecil50,000
228/05 14:55HOME88678lucky99200,000
328/05 14:53CR15T4LLlucky9910,000
428/05 14:52DN4DKOMANGmurni kecil50,000
528/05 14:51EDY0517murni besar50,000
628/05 14:50HENERNET1murni kecil5,000
728/05 14:50AULEAmurni kecil50,000
828/05 14:49F0252FC3murni besar5,000
928/05 14:49KASELLAmurni enam6,666,000
1028/05 14:49UEEF8PIFUCmurni besar5,000
1128/05 14:48CIPENK03murni kecil5,000
1228/05 14:48UJC0017murni besar50,000
1328/05 14:47OP4MVOTFSMmurni besar50,000
1428/05 14:47YKB88043murni kecil50,000
1528/05 14:47RZ291murni besar5,000
1628/05 14:47BUJANG51murni kecil5,000
1728/05 14:46POERBAbalak100,000
1828/05 14:46TARYEM_88murni besar25,000
1928/05 14:44CA4ADBE4murni besar5,000
2028/05 14:43DJEVDHISHAmurni kecil50,000
2128/05 14:42ERER96murni besar25,000
2228/05 14:41OMBAK099balak10,000
2328/05 14:39NANING99murni besar50,000
2428/05 14:38DOBBLE37balak100,000
2528/05 14:37UJC0017balak100,000
2628/05 14:36DWBTLINA69balak100,000
2728/05 14:34EMAGRAHAmurni besar5,000
2828/05 14:33SALWAID1balak100,000
2928/05 14:33DPTTAZEY01murni besar25,000
3028/05 14:33CA4ADBE4murni kecil5,000
3128/05 14:32HERI013murni besar5,000
3228/05 14:32B0SS_C1L1Kbalak10,000
3328/05 14:32KHLM99murni besar50,000
3428/05 14:32WANUEKmurni kecil50,000
3528/05 14:32RIGENS01murni kecil50,000
3628/05 14:32SINAKmurni besar50,000
3728/05 14:30ARI12_murni kecil5,000
3828/05 14:30JUNGZONGbalak10,000
3928/05 14:30CR15T4LLmurni kecil25,000
4028/05 14:29KESAH77murni kecil5,000
4128/05 14:29EBOT_01murni kecil25,000
4228/05 14:28POHAN0408murni kecil5,000
4328/05 14:28SONEN99murni besar5,000
4428/05 14:28RONDOTELESmurni besar50,000
4528/05 14:28ER87murni kecil50,000
4628/05 14:27IW4N98murni kecil5,000
4728/05 14:26BUNDAMIRNAmurni kecil25,000
4828/05 14:25GOLD3NSTARmurni besar25,000
4928/05 14:24ELVARO88murni besar25,000
5028/05 14:23SANDRY1812murni kecil50,000

Ceme Multi Jackpot System

Jackpot dilihat dari gabungan kartu pemain dengan kartu bandar. Bandar harus membeli jackpot sebanyak jumlah player yang sedang duduk. Sebagai contoh bila terdapat 3 pemain duduk bermain, dan bandar memutuskan untuk membeli jackpot Rp 1.000, maka pada periode tersebut bandar akan membeli jackpot sebanyak 3xRp1.000 = Rp3.000.

Jackpot bukanlah suatu keharusan untuk dibeli, namun kami memberikan suatu fitur tambahan untuk member tercinta dari www.s78poker.co.

Terdapat tiga pilihan harga jackpot yang bisa anda beli yaitu :100,500 dan 1000 rupiah.

Hadiah dari Multi jackpot system www.s78poker.co

  1. Murni Kecil x 50 harga jackpot yang anda beli.
      (contoh:anda membeli 1000 maka:1000 X 50 = 50.000)
  2. Murni Besar x 50 harga jackpot yang anda beli
      (contoh:anda membeli 1000 maka:1000 X 50 = 50.000)
  3. BALAK x 200 harga jackpot yang anda beli
      (contoh:anda membeli 1000 maka:1000 X 200 = 200.000)
  4. ENAM DEWA x 6666 harga jackpot yang anda beli
      (contoh:anda membeli 1000 maka:1000 X 6666 = 6.666.000)

Demikian adalah penjelasan dari Multi Jackpot www.s78poker.co terima kasih dan selamat bermain salam hoki dari kami

Ceme Jackpot Winner

TOP ENAM DEWA
No.TanggalNamaPriceWin
128/05 14:50CENTONXmurni enam6,666,000
228/05 14:50KAPENOL00murni enam666,600
328/05 14:41YKB881009murni enam6,666,000
428/05 14:312547MATAmurni enam3,333,000
528/05 14:28RED8999murni enam6,666,000
TOP BALAK
No.TanggalNamaPriceWin
128/05 14:55SEPETMAMbalak200,000
228/05 14:55KREAS99balak200,000
328/05 14:54YOUNDAIMEbalak100,000
428/05 14:53IWAN32balak200,000
528/05 14:53JAKES87balak200,000
LATEST JACKPOT
No.TanggalNamaPriceWin
128/05 14:56AD777777murni kecil50,000
228/05 14:56J4NC3murni kecil50,000
328/05 14:56JUNO33murni kecil50,000
428/05 14:56DONATJEBOTmurni kecil50,000
528/05 14:56JUNO33murni kecil50,000
628/05 14:56NIKEVmurni kecil25,000
728/05 14:56QBENEN19murni kecil50,000
828/05 14:56YORES20murni kecil50,000
928/05 14:56OJOKLHmurni besar50,000
1028/05 14:56ANCUL866murni besar50,000
1128/05 14:56IM_432murni kecil50,000
1228/05 14:56UNGING90murni besar25,000
1328/05 14:56GABOXSmurni besar50,000
1428/05 14:562547MATAmurni kecil25,000
1528/05 14:56LEOLAYmurni kecil50,000
1628/05 14:55SEPETMAMbalak200,000
1728/05 14:55KREAS99balak200,000
1828/05 14:55KUCIL_2564murni kecil50,000
1928/05 14:55PAYOLAKITOmurni kecil5,000
2028/05 14:55ANTI90ANmurni kecil25,000
2128/05 14:55TIMUNSURI1murni kecil50,000
2228/05 14:55NIKO8898murni kecil50,000
2328/05 14:55TIMUNSURI1murni kecil50,000
2428/05 14:55STEVI82murni kecil50,000
2528/05 14:55KHAFI85murni kecil25,000
2628/05 14:55YOUNDAIMEmurni kecil25,000
2728/05 14:55FINOKI0murni kecil50,000
2828/05 14:55LBKICAU99murni besar50,000
2928/05 14:55VICKY989murni besar50,000
3028/05 14:55ZBHW824D7Emurni besar5,000
3128/05 14:55JUNO33murni kecil50,000
3228/05 14:55DONATJEBOTmurni kecil50,000
3328/05 14:55JUPRIBOBmurni kecil50,000
3428/05 14:54B4N6K3QQmurni kecil25,000
3528/05 14:54YOUNDAIMEbalak100,000
3628/05 14:54SAINT85murni kecil50,000
3728/05 14:54GBR10001murni kecil50,000
3828/05 14:54FELYSYAmurni kecil25,000
3928/05 14:54MIENCAHYOmurni kecil25,000
4028/05 14:54DWBTA55547murni kecil25,000
4128/05 14:54KREML1Nmurni kecil25,000
4228/05 14:53S151PIRmurni besar50,000
4328/05 14:53T4D0016481murni kecil50,000
4428/05 14:53STONE_HOKImurni kecil5,000
4528/05 14:53IWAN32balak200,000
4628/05 14:53HK4DTATANGmurni kecil5,000
4728/05 14:53KAUDA1097murni besar25,000
4828/05 14:53JAKES87balak200,000
4928/05 14:53WOW179murni kecil5,000
5028/05 14:53RANDHA23balak100,000